Time;durP1;ratioP1;P1;durP2;ratioP2;P2;SDS_P1;SDS_P2;PMS_P1;PMS_P2;Temp;Humidity;BMP_temperature;BMP_pressure;BME280_temperature;BME280_humidity;BME280_pressure;Samples;Min_cycle;Max_cycle;Signal;HPM_P1;HPM_P2
2021/08/16 00:00:44;;;;;;;13.23;3.25;;;17.50;99.90;;;;;;5055686;28;20307;-78
2021/08/16 00:03:10;;;;;;;;;;;17.60;99.90;;;;;;5056014;28;20025;-76
2021/08/16 00:05:36;;;;;;;18.52;3.50;;;17.60;99.90;;;;;;5055553;28;19928;-78
2021/08/16 00:08:04;;;;;;;;;;;17.50;99.90;;;;;;5056030;28;20389;-78
2021/08/16 00:10:30;;;;;;;18.65;3.20;;;17.60;99.90;;;;;;5054979;28;19912;-77
2021/08/16 00:12:57;;;;;;;;;;;17.40;99.90;;;;;;5037205;28;20393;-78
2021/08/16 00:15:23;;;;;;;14.85;2.80;;;17.60;99.90;;;;;;5037687;28;19975;-78
2021/08/16 00:17:48;;;;;;;;;;;17.60;99.90;;;;;;5055769;28;20037;-77
2021/08/16 00:20:14;;;;;;;13.27;3.03;;;17.60;99.90;;;;;;5055339;28;20293;-78
2021/08/16 00:22:40;;;;;;;;;;;17.60;99.90;;;;;;5055726;28;20100;-78
2021/08/16 00:25:06;;;;;;;16.40;3.60;;;17.50;99.90;;;;;;5055090;28;19912;-77
2021/08/16 00:27:32;;;;;;;14.63;2.90;;;17.50;99.90;;;;;;5055454;28;20029;-79
2021/08/16 00:29:58;;;;;;;14.48;3.75;;;17.60;99.90;;;;;;5055169;28;20108;-77
2021/08/16 00:32:23;;;;;;;;;;;17.60;99.90;;;;;;5055459;28;20096;-78
2021/08/16 00:34:49;;;;;;;15.73;3.05;;;17.60;99.90;;;;;;5055062;28;19905;-78
2021/08/16 00:37:15;;;;;;;;;;;17.50;99.90;;;;;;5055479;28;20028;-77
2021/08/16 00:39:40;;;;;;;12.02;2.70;;;17.40;99.90;;;;;;5055211;28;20319;-79
2021/08/16 00:42:09;;;;;;;;;;;17.40;99.90;;;;;;5055320;28;20478;-78
2021/08/16 00:44:35;;;;;;;13.38;3.17;;;17.30;99.90;;;;;;5054945;28;19911;-77
2021/08/16 00:47:02;;;;;;;14.55;3.08;;;17.30;99.90;;;;;;5055042;28;20027;-76
2021/08/16 00:49:27;;;;;;;16.95;3.50;;;17.30;99.90;;;;;;5054787;28;20449;-78
2021/08/16 00:51:53;;;;;;;;;;;17.30;99.90;;;;;;5055141;28;20056;-78
2021/08/16 00:54:19;;;;;;;13.82;3.25;;;17.30;99.90;;;;;;5036676;28;19908;-76
2021/08/16 00:56:44;;;;;;;;;;;17.10;99.90;;;;;;5054999;28;20029;-77
2021/08/16 00:59:13;;;;;;;17.38;3.80;;;16.90;99.90;;;;;;5054571;28;20250;-77
2021/08/16 01:01:39;;;;;;;18.30;4.28;;;16.80;99.90;;;;;;5054718;28;20024;-78
2021/08/16 01:04:06;;;;;;;19.15;4.10;;;16.90;99.90;;;;;;5054358;28;20411;-76
2021/08/16 01:06:32;;;;;;;18.27;3.95;;;16.70;99.90;;;;;;5054293;28;20516;-76
2021/08/16 01:08:57;;;;;;;;;;;16.80;99.90;;;;;;5054742;28;20025;-79
2021/08/16 01:11:23;;;;;;;14.82;3.92;;;16.80;99.90;;;;;;5054291;28;20412;-78
2021/08/16 01:13:49;;;;;;;;;;;16.80;99.90;;;;;;5054692;28;20036;-78
2021/08/16 01:16:19;;;;;;;15.32;3.60;;;16.90;99.90;;;;;;5054230;28;19905;-77
2021/08/16 01:18:45;;;;;;;16.17;3.90;;;16.80;99.90;;;;;;5054155;28;20421;-78
2021/08/16 01:21:14;;;;;;;16.27;4.20;;;16.80;99.90;;;;;;5054100;28;20105;-78
2021/08/16 01:23:40;;;;;;;17.27;4.03;;;16.80;99.90;;;;;;5053585;28;20040;-78
2021/08/16 01:26:06;;;;;;;19.27;3.92;;;16.90;99.90;;;;;;5053960;28;20075;-76
2021/08/16 01:28:32;;;;;;;;;;;16.80;99.90;;;;;;5054595;28;20025;-77
2021/08/16 01:31:01;;;;;;;19.40;4.00;;;16.80;99.90;;;;;;5053937;28;19926;-77
2021/08/16 01:33:28;;;;;;;17.85;3.80;;;16.80;99.90;;;;;;5053871;28;20486;-76
2021/08/16 01:35:54;;;;;;;19.08;3.85;;;17.00;99.90;;;;;;5035959;28;20028;-78
2021/08/16 01:38:25;;;;;;;;;;;16.90;99.90;;;;;;5036311;28;20386;-77
2021/08/16 01:40:51;;;;;;;15.45;3.60;;;16.90;99.90;;;;;;5053922;28;19905;-76
2021/08/16 01:43:17;;;;;;;;;;;16.80;99.90;;;;;;5054164;28;20032;-76
2021/08/16 01:45:43;;;;;;;14.45;3.25;;;16.90;99.90;;;;;;5053780;28;20145;-77
2021/08/16 01:48:08;;;;;;;;;;;16.80;99.90;;;;;;5054030;28;20024;-77
2021/08/16 01:50:34;;;;;;;17.25;3.53;;;16.90;99.90;;;;;;5053795;28;19990;-77
2021/08/16 01:53:00;;;;;;;13.63;3.45;;;16.90;99.90;;;;;;5053523;28;20040;-78
2021/08/16 01:55:26;;;;;;;;;;;16.90;99.90;;;;;;5053951;28;20481;-77
2021/08/16 01:57:52;;;;;;;10.77;3.35;;;16.80;99.90;;;;;;5035649;28;19904;-78
2021/08/16 02:00:17;;;;;;;;;;;16.80;99.90;;;;;;5053859;28;20120;-78
2021/08/16 02:02:43;;;;;;;12.27;2.92;;;16.90;99.90;;;;;;5035609;28;20372;-78
2021/08/16 02:05:09;;;;;;;;;;;16.80;99.90;;;;;;5053766;28;20052;-77
2021/08/16 02:07:35;;;;;;;11.27;3.22;;;16.80;99.90;;;;;;5053313;28;19904;-77
2021/08/16 02:10:02;;;;;;;13.50;3.28;;;16.80;99.90;;;;;;5053641;28;20111;-77
2021/08/16 02:12:27;;;;;;;17.02;3.90;;;16.90;99.90;;;;;;5053211;28;20094;-77
2021/08/16 02:14:53;;;;;;;;;;;16.90;99.90;;;;;;5053821;28;20032;-77
2021/08/16 02:17:19;;;;;;;13.93;3.20;;;16.80;99.90;;;;;;5053260;28;19955;-78
2021/08/16 02:19:46;;;;;;;;;;;16.90;99.90;;;;;;5053603;28;20052;-76
2021/08/16 02:22:12;;;;;;;10.93;3.17;;;16.80;99.90;;;;;;5053321;28;19908;-77
2021/08/16 02:24:38;;;;;;;12.52;3.30;;;16.90;99.90;;;;;;5053211;28;20018;-77
2021/08/16 02:27:04;;;;;;;;;;;16.90;99.90;;;;;;5053487;28;20388;-77
2021/08/16 02:29:29;;;;;;;11.73;3.33;;;16.90;99.90;;;;;;5035164;28;19927;-78
2021/08/16 02:31:55;;;;;;;;;;;16.90;99.90;;;;;;5053468;28;20482;-78
2021/08/16 02:34:21;;;;;;;10.98;2.95;;;16.80;99.90;;;;;;5035972;28;19908;-79
2021/08/16 02:36:46;;;;;;;;;;;16.90;99.90;;;;;;5057710;28;20017;-78
2021/08/16 02:39:12;;;;;;;14.95;3.17;;;16.90;99.90;;;;;;5057593;28;20395;-79
2021/08/16 02:41:38;;;;;;;;;;;17.00;99.90;;;;;;5057493;28;20025;-77
2021/08/16 02:44:04;;;;;;;12.02;3.10;;;17.00;99.90;;;;;;5057388;28;19959;-76
2021/08/16 02:46:30;;;;;;;10.07;2.90;;;17.00;99.90;;;;;;5056630;28;20120;-77
2021/08/16 02:48:56;;;;;;;;;;;16.90;99.90;;;;;;5057355;28;20119;-77
2021/08/16 02:51:22;;;;;;;10.60;2.92;;;16.90;99.90;;;;;;5057329;28;19905;-77
2021/08/16 02:53:47;;;;;;;;;;;17.00;99.90;;;;;;5057256;28;20029;-77
2021/08/16 02:56:13;;;;;;;8.63;2.60;;;16.90;99.90;;;;;;5056929;28;20377;-77
2021/08/16 02:58:39;;;;;;;;;;;17.00;99.90;;;;;;5057231;28;20021;-78
2021/08/16 03:01:04;;;;;;;9.52;3.05;;;17.00;99.90;;;;;;5056785;28;19905;-77
2021/08/16 03:03:30;;;;;;;;;;;17.00;99.90;;;;;;5057314;28;20024;-78
2021/08/16 03:05:56;;;;;;;10.05;3.20;;;17.00;99.90;;;;;;5056708;28;19909;-77
2021/08/16 03:08:21;;;;;;;;;;;17.00;99.90;;;;;;5057065;28;20033;-78
2021/08/16 03:10:47;;;;;;;8.88;2.85;;;16.80;99.90;;;;;;5056558;28;19905;-77
2021/08/16 03:13:13;;;;;;;;;;;16.80;99.90;;;;;;5056832;28;20105;-78
2021/08/16 03:15:38;;;;;;;8.75;2.97;;;16.90;99.90;;;;;;5056497;28;19905;-77
2021/08/16 03:18:04;;;;;;;10.65;3.08;;;16.90;99.90;;;;;;5056487;28;20052;-77
2021/08/16 03:20:30;;;;;;;10.80;3.15;;;16.90;99.90;;;;;;5056430;28;20497;-77
2021/08/16 03:22:55;;;;;;;;;;;16.90;99.90;;;;;;5056803;28;20028;-78
2021/08/16 03:25:21;;;;;;;7.03;2.40;;;17.00;99.90;;;;;;5038371;28;19905;-77
2021/08/16 03:27:47;;;;;;;;;;;17.20;99.90;;;;;;5056885;28;20047;-78
2021/08/16 03:30:14;;;;;;;8.38;2.83;;;17.30;99.90;;;;;;5038262;28;19963;-77
2021/08/16 03:32:40;;;;;;;11.15;2.70;;;17.20;99.90;;;;;;5056147;28;20444;-78
2021/08/16 03:35:06;;;;;;;;;;;17.10;99.90;;;;;;5056514;28;20025;-78
2021/08/16 03:37:34;;;;;;;7.38;2.63;;;17.20;99.90;;;;;;5038196;28;19905;-76
2021/08/16 03:40:02;;;;;;;6.75;2.70;;;17.30;99.90;;;;;;5056165;28;20437;-77
2021/08/16 03:42:28;;;;;;;5.97;2.20;;;17.30;99.90;;;;;;5055977;28;20051;-78
2021/08/16 03:44:54;;;;;;;8.40;2.97;;;17.30;99.90;;;;;;5057642;28;20048;-77
2021/08/16 03:47:19;;;;;;;;;;;17.20;99.90;;;;;;5056313;28;20029;-77
2021/08/16 03:49:45;;;;;;;7.50;2.70;;;17.00;99.90;;;;;;5055856;28;20407;-76
2021/08/16 03:52:11;;;;;;;;;;;16.90;99.90;;;;;;5056208;28;20158;-76
2021/08/16 03:54:37;;;;;;;19.25;3.00;;;17.00;99.90;;;;;;5037831;28;19959;-77
2021/08/16 03:57:02;;;;;;;;;;;17.00;99.90;;;;;;5056129;28;20013;-79
2021/08/16 03:59:28;;;;;;;7.93;2.80;;;17.10;99.90;;;;;;5055772;28;19911;-77
2021/08/16 04:01:54;;;;;;;;;;;17.10;99.90;;;;;;5056133;28;20031;-77
2021/08/16 04:04:19;;;;;;;9.82;2.97;;;17.00;99.90;;;;;;5055581;28;20273;-78
2021/08/16 04:06:45;;;;;;;;;;;17.00;99.90;;;;;;5056385;28;20025;-77
2021/08/16 04:09:11;;;;;;;6.32;2.80;;;17.10;99.90;;;;;;5055820;28;19912;-78
2021/08/16 04:11:37;;;;;;;;;;;17.10;99.90;;;;;;5037996;28;20422;-77
2021/08/16 04:14:03;;;;;;;7.30;3.13;;;17.10;99.90;;;;;;5055365;28;19909;-77
2021/08/16 04:16:29;;;;;;;;;;;17.00;99.90;;;;;;5055729;28;20024;-77
2021/08/16 04:18:55;;;;;;;7.13;2.80;;;17.10;99.90;;;;;;5037385;28;19905;-78
2021/08/16 04:21:20;;;;;;;;;;;17.20;99.90;;;;;;5055896;28;20029;-76
2021/08/16 04:23:46;;;;;;;9.18;2.80;;;17.20;99.90;;;;;;5055136;28;20361;-77
2021/08/16 04:26:12;;;;;;;;;;;17.30;99.90;;;;;;5055677;28;20025;-79
2021/08/16 04:28:37;;;;;;;8.10;3.05;;;17.20;99.90;;;;;;5037265;28;19905;-78
2021/08/16 04:31:03;;;;;;;;;;;17.10;99.90;;;;;;5055489;28;20036;-78
2021/08/16 04:33:29;;;;;;;7.78;3.22;;;17.30;99.90;;;;;;5054989;28;20388;-77
2021/08/16 04:35:54;;;;;;;;;;;17.40;99.90;;;;;;5037473;28;20051;-77
2021/08/16 04:38:22;;;;;;;6.28;2.90;;;17.40;99.90;;;;;;5037101;28;19909;-77
2021/08/16 04:40:50;;;;;;;7.95;3.03;;;17.60;99.90;;;;;;5055139;28;20021;-77
2021/08/16 04:43:16;;;;;;;10.63;3.50;;;17.70;99.90;;;;;;5054895;28;20436;-77
2021/08/16 04:45:42;;;;;;;10.20;3.60;;;17.70;99.90;;;;;;5054592;28;20136;-77
2021/08/16 04:48:08;;;;;;;;;;;17.70;99.90;;;;;;5055271;28;20132;-78
2021/08/16 04:50:33;;;;;;;11.63;4.28;;;17.80;99.90;;;;;;5054693;28;19944;-77
2021/08/16 04:52:59;;;;;;;;;;;17.60;99.90;;;;;;5055009;28;20489;-76
2021/08/16 04:55:25;;;;;;;14.80;4.85;;;17.70;99.90;;;;;;5054605;28;20333;-78
2021/08/16 04:57:50;;;;;;;;;;;17.60;99.90;;;;;;5036321;28;20026;-78
2021/08/16 05:00:19;;;;;;;11.10;4.13;;;17.60;99.90;;;;;;5054664;28;19967;-77
2021/08/16 05:02:45;;;;;;;13.60;4.22;;;17.70;99.90;;;;;;5036352;28;20040;-78
2021/08/16 05:05:14;;;;;;;;;;;17.50;99.90;;;;;;5054901;28;20025;-77
2021/08/16 05:07:49;;;;;;;11.00;4.35;;;17.60;99.90;;;;;;5036546;28;20392;-77
2021/08/16 05:10:16;;;;;;;11.82;4.38;;;17.70;99.90;;;;;;5054469;28;20508;-78
2021/08/16 05:12:41;;;;;;;10.00;4.53;;;17.60;99.90;;;;;;5054255;28;20032;-76
2021/08/16 05:15:07;;;;;;;;;;;17.70;99.90;;;;;;5054676;28;20083;-76
2021/08/16 05:17:34;;;;;;;14.70;5.32;;;17.80;99.90;;;;;;5054433;28;19916;-78
2021/08/16 05:20:01;;;;;;;11.93;4.65;;;17.70;99.90;;;;;;5054134;28;20029;-77
2021/08/16 05:22:27;;;;;;;11.88;4.63;;;17.80;99.90;;;;;;5054038;28;20390;-78
2021/08/16 05:24:53;;;;;;;12.27;5.35;;;17.90;99.90;;;;;;5053981;28;20013;-77
2021/08/16 05:27:18;;;;;;;13.80;4.60;;;17.90;99.90;;;;;;5036134;28;20039;-77
2021/08/16 05:29:44;;;;;;;;;;;18.00;99.90;;;;;;5054390;28;20381;-76
2021/08/16 05:32:10;;;;;;;12.23;3.90;;;17.90;99.90;;;;;;5053957;28;19905;-76
2021/08/16 05:34:36;;;;;;;;;;;18.10;99.90;;;;;;5054259;28;20029;-77
2021/08/16 05:37:02;;;;;;;15.55;5.43;;;18.00;99.90;;;;;;5053890;28;19905;-77
2021/08/16 05:39:28;;;;;;;19.90;5.03;;;18.00;99.90;;;;;;5053784;28;20021;-78
2021/08/16 05:41:53;;;;;;;13.75;4.50;;;17.90;99.90;;;;;;5053782;28;20025;-77
2021/08/16 05:44:19;;;;;;;;;;;17.80;99.90;;;;;;5054353;28;20035;-77
2021/08/16 05:46:45;;;;;;;9.77;3.55;;;18.10;99.90;;;;;;5053390;28;19920;-78
2021/08/16 05:49:10;;;;;;;;;;;18.10;99.90;;;;;;5054020;28;20474;-77
2021/08/16 05:51:36;;;;;;;12.27;3.90;;;18.00;99.90;;;;;;5053629;28;19912;-78
2021/08/16 05:54:03;;;;;;;;;;;18.10;99.90;;;;;;5053822;28;20427;-78
2021/08/16 05:56:29;;;;;;;12.95;3.72;;;18.30;99.90;;;;;;5035634;28;19960;-77
2021/08/16 05:58:55;;;;;;;14.50;3.88;;;18.30;99.90;;;;;;5053454;28;20021;-76
2021/08/16 06:01:21;;;;;;;10.70;3.50;;;18.40;99.90;;;;;;5035665;28;20027;-78
2021/08/16 06:03:46;;;;;;;;;;;18.60;99.90;;;;;;5053820;28;20046;-77
2021/08/16 06:06:12;;;;;;;13.45;3.40;;;18.60;99.90;;;;;;5053746;28;19905;-77
2021/08/16 06:08:38;;;;;;;13.80;3.28;;;18.60;99.90;;;;;;5053370;28;20477;-77
2021/08/16 06:11:04;;;;;;;17.73;3.50;;;18.70;99.90;;;;;;5053274;28;20040;-77
2021/08/16 06:13:30;;;;;;;13.13;3.10;;;18.60;99.90;;;;;;5053226;28;20025;-76
2021/08/16 06:15:56;;;;;;;13.55;3.42;;;18.50;99.90;;;;;;5053755;28;20029;-76
2021/08/16 06:18:22;;;;;;;13.38;3.05;;;18.40;99.90;;;;;;5053201;28;20397;-77
2021/08/16 06:20:47;;;;;;;13.75;3.40;;;18.40;99.90;;;;;;5053156;28;20072;-77
2021/08/16 06:23:13;;;;;;;;;;;18.50;99.90;;;;;;5053567;28;20025;-78
2021/08/16 06:25:39;;;;;;;13.98;3.30;;;18.50;99.90;;;;;;5053026;28;19905;-77
2021/08/16 06:28:04;;;;;;;15.52;3.47;;;18.50;99.90;;;;;;5053137;28;20029;-76
2021/08/16 06:30:30;;;;;;;15.80;3.13;;;18.50;99.90;;;;;;5053082;28;20094;-77
2021/08/16 06:32:56;;;;;;;;;;;18.60;99.90;;;;;;5053652;28;20049;-77
2021/08/16 06:35:22;;;;;;;13.88;3.47;;;18.60;99.90;;;;;;5053117;28;19912;-77
2021/08/16 06:37:48;;;;;;;15.65;3.58;;;18.60;99.90;;;;;;5052989;28;20047;-78
2021/08/16 06:40:15;;;;;;;13.75;3.83;;;18.70;99.90;;;;;;5035053;28;20106;-78
2021/08/16 06:42:41;;;;;;;13.50;3.28;;;18.90;99.90;;;;;;5052974;28;20066;-77
2021/08/16 06:45:07;;;;;;;14.77;3.35;;;18.90;99.90;;;;;;5052849;28;20053;-77
2021/08/16 06:47:34;;;;;;;11.85;2.97;;;18.90;99.90;;;;;;5053105;28;20025;-76
2021/08/16 06:49:59;;;;;;;13.68;3.10;;;18.90;99.90;;;;;;5052951;28;20029;-78
2021/08/16 06:52:25;;;;;;;15.82;3.53;;;19.00;99.90;;;;;;5034951;28;20393;-76
2021/08/16 06:54:51;;;;;;;14.73;3.17;;;19.10;99.90;;;;;;5053135;28;20021;-78
2021/08/16 06:57:17;;;;;;;13.98;2.95;;;19.30;99.90;;;;;;5052852;28;20021;-78
2021/08/16 06:59:42;;;;;;;13.00;3.03;;;19.70;99.90;;;;;;5052852;28;20025;-78
2021/08/16 07:02:08;;;;;;;11.27;2.85;;;20.10;99.90;;;;;;5053220;28;20013;-78
2021/08/16 07:04:35;;;;;;;17.52;3.45;;;20.60;99.90;;;;;;5052817;28;20443;-78
2021/08/16 07:07:02;;;;;;;12.38;2.80;;;20.90;99.90;;;;;;5052743;28;20030;-77
2021/08/16 07:09:27;;;;;;;12.57;2.90;;;21.20;99.90;;;;;;5052773;28;20029;-78
2021/08/16 07:11:55;;;;;;;12.40;2.88;;;21.50;99.90;;;;;;5052676;28;20040;-78
2021/08/16 07:14:21;;;;;;;15.10;3.30;;;21.70;99.90;;;;;;5052757;28;20029;-78
2021/08/16 07:16:47;;;;;;;15.85;3.17;;;22.00;99.90;;;;;;5052853;28;20088;-77
2021/08/16 07:19:13;;;;;;;14.07;3.08;;;22.00;99.90;;;;;;5052634;28;20021;-78
2021/08/16 07:21:38;;;;;;;13.23;3.10;;;22.30;99.90;;;;;;5037280;28;20013;-78
2021/08/16 07:24:05;;;;;;;13.07;2.85;;;22.40;99.90;;;;;;5056488;28;20029;-78
2021/08/16 07:26:31;;;;;;;10.95;2.78;;;22.40;99.90;;;;;;5056339;28;20017;-78
2021/08/16 07:28:56;;;;;;;12.63;3.20;;;22.90;99.90;;;;;;5038325;28;20032;-78
2021/08/16 07:31:22;;;;;;;11.63;2.85;;;22.90;99.90;;;;;;5056237;28;20049;-77
2021/08/16 07:33:48;;;;;;;12.18;3.10;;;22.90;99.90;;;;;;5056173;28;20041;-78
2021/08/16 07:36:14;;;;;;;14.23;3.08;;;23.40;99.90;;;;;;5056141;28;20047;-78
2021/08/16 07:38:39;;;;;;;12.15;3.17;;;23.60;99.90;;;;;;5056078;28;20491;-78
2021/08/16 07:41:05;;;;;;;12.25;2.83;;;23.70;99.90;;;;;;5056013;28;20015;-78
2021/08/16 07:43:31;;;;;;;14.52;2.72;;;24.00;99.90;;;;;;5056014;28;20056;-77
2021/08/16 07:45:57;;;;;;;12.90;3.25;;;23.70;99.90;;;;;;5055871;28;20124;-77
2021/08/16 07:48:22;;;;;;;9.80;3.58;;;24.10;99.90;;;;;;5055902;28;20025;-78
2021/08/16 07:50:48;;;;;;;11.93;2.85;;;24.20;99.90;;;;;;5055783;28;20029;-78
2021/08/16 07:53:14;;;;;;;8.23;2.70;;;24.10;99.90;;;;;;5055717;28;20056;-79
2021/08/16 07:55:41;;;;;;;12.35;3.53;;;24.30;99.90;;;;;;5055721;28;20390;-79
2021/08/16 07:58:06;;;;;;;16.15;3.45;;;24.40;99.90;;;;;;5055737;28;20539;-77
2021/08/16 08:00:32;;;;;;;11.77;2.58;;;24.60;99.90;;;;;;5055678;28;20009;-78
2021/08/16 08:02:58;;;;;;;10.50;2.78;;;24.10;99.90;;;;;;5037650;28;20374;-78
2021/08/16 08:05:24;;;;;;;9.77;2.92;;;23.70;99.90;;;;;;5055830;28;20066;-78
2021/08/16 08:07:51;;;;;;;10.32;2.67;;;24.20;99.90;;;;;;5037626;28;20443;-78
2021/08/16 08:10:18;;;;;;;9.75;2.72;;;24.70;99.90;;;;;;5055547;28;20032;-78
2021/08/16 08:12:46;;;;;;;9.73;2.83;;;24.70;99.70;;;;;;5055364;28;20076;-79
2021/08/16 08:15:13;;;;;;;14.48;3.08;;;25.30;99.00;;;;;;5055443;28;20139;-79
2021/08/16 08:17:39;;;;;;;10.07;2.83;;;25.70;98.40;;;;;;5055556;28;20025;-77
2021/08/16 08:20:06;;;;;;;14.23;3.05;;;26.10;96.90;;;;;;5055276;28;20032;-79
2021/08/16 08:22:32;;;;;;;10.80;3.00;;;26.20;96.00;;;;;;5055236;28;20053;-78
2021/08/16 08:24:58;;;;;;;11.32;3.03;;;26.20;94.70;;;;;;5055207;28;20025;-79
2021/08/16 08:27:24;;;;;;;11.55;3.00;;;26.30;93.80;;;;;;5037323;28;20039;-78
2021/08/16 08:29:50;;;;;;;9.45;2.65;;;26.70;92.90;;;;;;5055115;28;20477;-79
2021/08/16 08:32:16;;;;;;;9.35;3.00;;;27.10;92.30;;;;;;5053964;28;20409;-79
2021/08/16 08:34:42;;;;;;;9.43;3.00;;;27.50;90.50;;;;;;5054967;28;20025;-79
2021/08/16 08:37:10;;;;;;;9.60;2.88;;;27.60;89.30;;;;;;5054968;28;20032;-79
2021/08/16 08:39:43;;;;;;;10.45;3.15;;;28.50;87.70;;;;;;5054992;28;20027;-79
2021/08/16 08:42:12;;;;;;;9.50;2.78;;;29.00;84.00;;;;;;5055202;28;20052;-79
2021/08/16 08:44:40;;;;;;;7.85;2.55;;;29.60;83.40;;;;;;5054740;28;20059;-80
2021/08/16 08:47:06;;;;;;;9.13;2.50;;;30.70;80.20;;;;;;5054782;28;20047;-79
2021/08/16 08:49:32;;;;;;;9.00;2.70;;;31.50;75.00;;;;;;5053475;28;20021;-79
2021/08/16 08:51:59;;;;;;;10.10;3.00;;;30.50;72.20;;;;;;5053456;28;20032;-79
2021/08/16 08:54:27;;;;;;;9.15;2.92;;;29.70;73.30;;;;;;5054644;28;20441;-80
2021/08/16 08:56:56;;;;;;;8.85;2.95;;;30.10;70.10;;;;;;5054559;28;20055;-80
2021/08/16 08:59:22;;;;;;;12.18;2.83;;;29.20;72.20;;;;;;5053321;28;20017;-78
2021/08/16 09:01:56;;;;;;;9.65;2.90;;;28.60;74.40;;;;;;5054825;28;20032;-79
2021/08/16 09:04:22;;;;;;;8.02;2.78;;;27.80;75.20;;;;;;5053037;28;20079;-80
2021/08/16 09:06:48;;;;;;;9.48;2.72;;;30.10;71.20;;;;;;5054457;28;20478;-79
2021/08/16 09:09:16;;;;;;;7.75;2.50;;;32.00;64.80;;;;;;5053123;28;20459;-79
2021/08/16 09:11:46;;;;;;;6.80;2.30;;;30.20;63.10;;;;;;5054308;28;20028;-78
2021/08/16 09:14:12;;;;;;;13.73;2.75;;;28.60;66.10;;;;;;5054363;28;20124;-78
2021/08/16 09:16:39;;;;;;;7.38;2.58;;;27.30;69.80;;;;;;5054223;28;20560;-78
2021/08/16 09:19:19;;;;;;;8.38;2.45;;;26.90;75.20;;;;;;5054225;28;20017;-79
2021/08/16 09:21:56;;;;;;;7.35;2.50;;;26.40;75.60;;;;;;5054236;28;20457;-77
2021/08/16 09:24:28;;;;;;;8.93;2.83;;;26.40;78.50;;;;;;5054179;28;20079;-79
2021/08/16 09:27:05;;;;;;;9.30;2.72;;;26.50;75.70;;;;;;5054542;28;20493;-79
2021/08/16 09:29:31;;;;;;;10.80;2.80;;;26.50;75.10;;;;;;5054061;28;20496;-78
2021/08/16 09:32:03;;;;;;;7.10;2.50;;;26.70;73.70;;;;;;5052697;28;20455;-79
2021/08/16 09:34:48;;;;;;;8.85;3.05;;;27.80;71.60;;;;;;5052309;28;20512;-78
2021/08/16 09:37:23;;;;;;;8.40;2.95;;;28.10;71.00;;;;;;5054065;28;20103;-79
2021/08/16 09:40:09;;;;;;;10.30;2.72;;;27.60;71.60;;;;;;5053892;28;20023;-78
2021/08/16 09:42:52;;;;;;;9.35;2.92;;;27.00;73.20;;;;;;5054079;28;20027;-78
2021/08/16 09:45:31;;;;;;;12.45;2.97;;;26.50;73.40;;;;;;5053626;28;20041;-78
2021/08/16 09:47:58;;;;;;;11.10;2.85;;;27.10;71.90;;;;;;5053845;28;20105;-79
2021/08/16 09:50:42;;;;;;;8.82;3.10;;;26.70;72.60;;;;;;5035673;28;20025;-79
2021/08/16 09:53:10;;;;;;;7.95;2.67;;;27.10;71.30;;;;;;5035367;28;20520;-79
2021/08/16 09:55:41;;;;;;;8.90;3.13;;;27.30;71.20;;;;;;5053664;28;20025;-78
2021/08/16 09:58:15;;;;;;;8.90;3.08;;;26.50;73.50;;;;;;5035252;28;20027;-79
2021/08/16 10:00:43;;;;;;;7.60;2.90;;;26.20;74.20;;;;;;5053465;28;20031;-79
2021/08/16 10:03:11;;;;;;;10.15;3.03;;;26.50;77.20;;;;;;5053405;28;20033;-79
2021/08/16 10:05:38;;;;;;;9.20;3.20;;;27.30;73.50;;;;;;5035584;28;20033;-78
2021/08/16 10:08:10;;;;;;;10.13;3.50;;;27.10;71.90;;;;;;5053390;28;20031;-79
2021/08/16 10:10:38;;;;;;;8.77;2.92;;;27.30;71.50;;;;;;5053299;28;20082;-79
2021/08/16 10:13:05;;;;;;;9.85;2.80;;;27.60;71.80;;;;;;5053371;28;20028;-79
2021/08/16 10:15:45;;;;;;;11.20;3.08;;;28.50;68.80;;;;;;5035373;28;20393;-79
2021/08/16 10:18:21;;;;;;;10.77;3.17;;;30.30;65.50;;;;;;5035122;28;20025;-80
2021/08/16 10:20:48;;;;;;;10.48;2.97;;;32.30;59.20;;;;;;5035163;28;20064;-79
2021/08/16 10:23:25;;;;;;;9.98;2.88;;;31.40;58.10;;;;;;5053204;28;20603;-78
2021/08/16 10:25:53;;;;;;;9.13;3.50;;;29.50;60.90;;;;;;5053112;28;20028;-79
2021/08/16 10:28:29;;;;;;;7.63;2.70;;;28.10;65.20;;;;;;5053014;28;20517;-79
2021/08/16 10:30:56;;;;;;;8.30;2.80;;;27.60;67.70;;;;;;5053304;28;20103;-78
2021/08/16 10:33:23;;;;;;;10.98;3.20;;;26.90;70.00;;;;;;5052980;28;20063;-79
2021/08/16 10:35:49;;;;;;;11.32;2.95;;;26.20;73.70;;;;;;5053165;28;20485;-78
2021/08/16 10:38:17;;;;;;;10.57;2.80;;;26.30;74.60;;;;;;5053002;28;20021;-78
2021/08/16 10:40:49;;;;;;;9.05;2.70;;;26.10;76.00;;;;;;5053189;28;20017;-79
2021/08/16 10:43:16;;;;;;;8.55;2.50;;;26.00;76.80;;;;;;5034846;28;20029;-79
2021/08/16 10:45:44;;;;;;;12.15;3.30;;;26.10;77.10;;;;;;5052725;28;20053;-78
2021/08/16 10:48:10;;;;;;;7.95;2.53;;;26.50;77.10;;;;;;5052916;28;20037;-77
2021/08/16 10:50:37;;;;;;;9.50;2.90;;;26.60;76.40;;;;;;5035110;28;20064;-78
2021/08/16 10:53:05;;;;;;;9.68;2.75;;;26.80;75.70;;;;;;5052800;28;20462;-79
2021/08/16 10:55:38;;;;;;;10.02;3.13;;;26.40;75.40;;;;;;5053784;28;20044;-79
2021/08/16 10:58:08;;;;;;;9.45;2.92;;;26.00;77.30;;;;;;5057052;28;20531;-79
2021/08/16 11:00:35;;;;;;;12.23;3.00;;;24.70;82.50;;;;;;5056896;28;20100;-78
2021/08/16 11:03:01;;;;;;;9.48;2.80;;;25.00;84.50;;;;;;5057194;28;20025;-78
2021/08/16 11:05:33;;;;;;;11.18;2.53;;;24.80;85.90;;;;;;5038961;28;20558;-79
2021/08/16 11:08:03;;;;;;;10.18;3.15;;;25.30;85.90;;;;;;5056960;28;20029;-78
2021/08/16 11:10:41;;;;;;;11.15;2.83;;;25.10;86.30;;;;;;5056902;28;20021;-78
2021/08/16 11:13:18;;;;;;;11.40;3.28;;;24.20;89.00;;;;;;5056588;28;20033;-79
2021/08/16 11:15:46;;;;;;;11.40;2.80;;;24.30;89.90;;;;;;5056737;28;20499;-76
2021/08/16 11:18:19;;;;;;;12.23;2.78;;;24.50;89.90;;;;;;5056504;28;20051;-78
2021/08/16 11:20:55;;;;;;;11.60;3.47;;;24.30;90.20;;;;;;5056477;28;20021;-78
2021/08/16 11:23:21;;;;;;;11.73;3.22;;;24.10;91.20;;;;;;5056664;28;20033;-78
2021/08/16 11:25:55;;;;;;;10.50;3.10;;;24.10;92.10;;;;;;5038378;28;20481;-79
2021/08/16 11:28:26;;;;;;;9.60;3.08;;;28.40;85.90;;;;;;5056410;28;20029;-80
2021/08/16 11:31:02;;;;;;;9.88;3.35;;;34.50;64.30;;;;;;5056297;28;20049;-81
2021/08/16 11:33:29;;;;;;;11.07;3.35;;;37.30;51.50;;;;;;5056341;28;20067;-79
2021/08/16 11:36:08;;;;;;;9.82;3.22;;;38.10;46.90;;;;;;5056170;28;20519;-79
2021/08/16 11:38:35;;;;;;;9.27;3.22;;;38.30;46.40;;;;;;5056166;28;20025;-80
2021/08/16 11:41:04;;;;;;;8.60;3.60;;;39.70;43.10;;;;;;5056426;28;20027;-79
2021/08/16 11:43:30;;;;;;;11.40;3.50;;;40.60;43.20;;;;;;5056004;28;20056;-79
2021/08/16 11:45:55;;;;;;;14.20;3.55;;;36.10;44.40;;;;;;5055865;28;20048;-78
2021/08/16 11:48:24;;;;;;;10.55;3.15;;;34.00;49.40;;;;;;5055940;28;20100;-78
2021/08/16 11:50:57;;;;;;;10.82;3.00;;;32.20;51.60;;;;;;5056086;28;20022;-77
2021/08/16 11:53:22;;;;;;;9.77;3.08;;;30.10;55.00;;;;;;5056164;28;20103;-79
2021/08/16 11:55:48;;;;;;;11.35;3.30;;;28.40;57.80;;;;;;5056035;28;20183;-79
2021/08/16 11:58:14;;;;;;;11.70;3.08;;;27.80;60.90;;;;;;5055763;28;20083;-79
2021/08/16 12:00:41;;;;;;;11.35;3.58;;;27.80;61.60;;;;;;5055991;28;20405;-78
2021/08/16 12:03:07;;;;;;;9.95;3.97;;;30.70;60.20;;;;;;5055599;28;20029;-79
2021/08/16 12:05:33;;;;;;;11.43;3.90;;;32.00;53.80;;;;;;5055602;28;20021;-79
2021/08/16 12:07:59;;;;;;;15.52;3.80;;;36.90;49.20;;;;;;5037505;28;20021;-80
2021/08/16 12:10:27;;;;;;;13.02;4.20;;;33.20;49.40;;;;;;5055549;28;20148;-80
2021/08/16 12:12:58;;;;;;;9.15;3.80;;;35.90;49.10;;;;;;5055477;28;20485;-81
2021/08/16 12:15:24;;;;;;;10.57;4.00;;;40.30;42.50;;;;;;5055667;28;20021;-80
2021/08/16 12:17:53;;;;;;;8.98;3.70;;;35.90;44.10;;;;;;5055569;28;20021;-80
2021/08/16 12:20:19;;;;;;;9.90;4.50;;;39.30;44.20;;;;;;5037431;28;20457;-80
2021/08/16 12:22:57;;;;;;;9.05;4.20;;;42.10;39.20;;;;;;5055216;28;20029;-79
2021/08/16 12:25:25;;;;;;;13.82;4.63;;;44.40;38.20;;;;;;5055203;28;20028;-78
2021/08/16 12:28:16;;;;;;;10.60;4.20;;;41.80;36.90;;;;;;5055594;28;20029;-79
2021/08/16 12:30:42;;;;;;;11.57;4.70;;;42.20;38.50;;;;;;5052931;28;20068;-80
2021/08/16 12:33:13;;;;;;;10.48;4.15;;;44.50;36.20;;;;;;5055130;28;20032;-79
2021/08/16 12:35:40;;;;;;;11.15;4.10;;;38.50;38.50;;;;;;5055557;28;20096;-79
2021/08/16 12:38:06;;;;;;;9.85;4.75;;;36.00;41.00;;;;;;5054972;28;20017;-78
2021/08/16 12:40:34;;;;;;;10.68;4.90;;;39.30;40.80;;;;;;5037068;28;20056;-78
2021/08/16 12:43:03;;;;;;;11.82;4.43;;;44.20;37.60;;;;;;5054873;28;20029;-80
2021/08/16 12:45:30;;;;;;;10.63;4.80;;;42.50;37.30;;;;;;5054691;28;20048;-78
2021/08/16 12:48:00;;;;;;;10.90;5.10;;;42.50;37.20;;;;;;5054806;28;20074;-79
2021/08/16 12:50:28;;;;;;;10.13;5.10;;;45.60;35.20;;;;;;5036862;28;20028;-79
2021/08/16 12:52:54;;;;;;;11.93;5.10;;;45.80;34.10;;;;;;5054750;28;20016;-79
2021/08/16 12:55:20;;;;;;;11.85;4.63;;;40.00;35.30;;;;;;5054717;28;20025;-78